Amistad, New Mexico
Current Conditions -  °F | °C
As of 9:53 PM on Sunday 23 Nov 2014 (Local Time) from KDHT Reporting Station
Scattered Clouds Scattered Clouds  
Wind Chill: 24°   Ceiling: Unl
Heat Index: 32°   Visibility: 10mi
Dew Point: 23°   Wind: 10mph
Humidity: 69%   Direction: 300°WNW
Pressure: 29.94"   Gusts: NA
Location:  35.92°N, 103.16°W
Report Text: KDHT 240453Z AUTO 30009KT 10SM SCT100 SCT120 00/M05 A2994 RMK AO2 SLP140 T00001050
Loading
Personal Weather Stations






























Interactive Weather Map New forecast layout! Learn more

10-Day Weather Forecast

Advertisements
Track Severe Weather on mobile